Time;durP1;ratioP1;P1;durP2;ratioP2;P2;SDS_P1;SDS_P2;PMS_P1;PMS_P2;Temp;Humidity;BMP_temperature;BMP_pressure;BME280_temperature;BME280_humidity;BME280_pressure;Samples;Min_cycle;Max_cycle;Signal;HPM_P1;HPM_P2
2021/10/18 00:02:12;;;;;;;0.43;0.35;;;14.10;99.90;;;;;;5054429;28;20434;-77
2021/10/18 00:04:37;;;;;;;0.25;0.25;;;14.20;99.90;;;;;;5054373;28;20029;-77
2021/10/18 00:07:03;;;;;;;1.80;1.20;;;14.20;99.90;;;;;;5054320;28;20025;-77
2021/10/18 00:09:29;;;;;;;0.38;0.25;;;14.20;99.90;;;;;;5053350;28;20385;-77
2021/10/18 00:11:55;;;;;;;1.30;0.90;;;14.20;99.90;;;;;;5053916;28;20029;-77
2021/10/18 00:14:21;;;;;;;3.03;1.30;;;14.20;99.90;;;;;;5054066;28;20045;-77
2021/10/18 00:16:47;;;;;;;0.15;0.15;;;14.20;99.90;;;;;;5054065;28;20024;-77
2021/10/18 00:19:13;;;;;;;3.33;1.48;;;14.20;99.90;;;;;;5053992;28;20039;-77
2021/10/18 00:21:39;;;;;;;0.35;0.35;;;14.20;99.90;;;;;;5053889;28;20025;-77
2021/10/18 00:24:05;;;;;;;0.00;0.00;;;14.10;99.90;;;;;;5054410;28;20033;-77
2021/10/18 00:26:31;;;;;;;0.88;0.88;;;14.10;99.90;;;;;;5053793;28;20449;-77
2021/10/18 00:28:57;;;;;;;0.85;0.85;;;14.10;99.90;;;;;;5053847;28;20182;-77
2021/10/18 00:31:23;;;;;;;0.68;0.55;;;14.10;99.90;;;;;;5053604;28;20392;-77
2021/10/18 00:33:49;;;;;;;0.20;0.20;;;14.00;99.90;;;;;;5053825;28;20381;-77
2021/10/18 00:36:15;;;;;;;1.40;0.93;;;14.10;99.90;;;;;;5053603;28;20027;-77
2021/10/18 00:38:41;;;;;;;0.10;0.10;;;14.10;99.90;;;;;;5053576;28;20029;-78
2021/10/18 00:41:06;;;;;;;0.98;0.43;;;14.10;99.90;;;;;;5053692;28;20025;-77
2021/10/18 00:43:32;;;;;;;1.85;0.68;;;14.00;99.90;;;;;;5053466;28;20075;-77
2021/10/18 00:45:58;;;;;;;1.67;1.55;;;14.10;99.90;;;;;;5053589;28;20017;-78
2021/10/18 00:48:24;;;;;;;0.50;0.50;;;14.00;99.90;;;;;;5052224;28;20032;-78
2021/10/18 00:50:56;;;;;;;0.30;0.30;;;14.10;99.90;;;;;;5052024;28;20028;-77
2021/10/18 00:53:26;;;;;;;0.35;0.35;;;14.10;99.90;;;;;;5053118;28;20075;-77
2021/10/18 00:55:53;;;;;;;0.10;0.10;;;14.10;99.90;;;;;;5053499;28;20021;-77
2021/10/18 00:58:20;;;;;;;0.00;0.00;;;14.10;99.90;;;;;;5053303;28;20571;-76
2021/10/18 01:00:46;;;;;;;0.88;0.85;;;14.10;99.90;;;;;;5053141;28;20074;-78
2021/10/18 01:03:12;;;;;;;0.30;0.30;;;14.10;99.90;;;;;;5053108;28;20109;-76
2021/10/18 01:05:41;;;;;;;0.05;0.05;;;14.10;99.90;;;;;;5053252;28;20528;-76
2021/10/18 01:08:08;;;;;;;4.72;1.15;;;14.10;99.90;;;;;;5053158;28;20024;-77
2021/10/18 01:10:34;;;;;;;0.20;0.20;;;14.10;99.90;;;;;;5052758;28;20113;-77
2021/10/18 01:12:59;;;;;;;0.03;0.03;;;14.10;99.90;;;;;;5053276;28;20029;-77
2021/10/18 01:15:25;;;;;;;0.20;0.20;;;14.10;99.90;;;;;;5052772;28;20033;-77
2021/10/18 01:17:51;;;;;;;1.45;0.60;;;14.10;99.90;;;;;;5052997;28;20522;-77
2021/10/18 01:20:30;;;;;;;0.65;0.65;;;14.10;99.90;;;;;;5052741;28;20033;-77
2021/10/18 01:22:56;;;;;;;0.57;0.50;;;14.10;99.90;;;;;;5053301;28;20491;-77
2021/10/18 01:25:22;;;;;;;1.95;1.17;;;14.20;99.90;;;;;;5052761;28;20050;-77
2021/10/18 01:27:49;;;;;;;0.30;0.20;;;14.20;99.90;;;;;;5052819;28;20422;-77
2021/10/18 01:30:15;;;;;;;1.30;0.75;;;14.20;99.90;;;;;;5051559;28;20029;-77
2021/10/18 01:32:42;;;;;;;0.10;0.10;;;14.20;99.90;;;;;;5052578;28;20024;-77
2021/10/18 01:35:09;;;;;;;0.20;0.20;;;14.10;99.90;;;;;;5052821;28;20021;-77
2021/10/18 01:37:35;;;;;;;2.63;0.70;;;14.10;99.90;;;;;;5052860;28;20028;-77
2021/10/18 01:40:00;;;;;;;2.40;0.65;;;14.10;99.90;;;;;;5052468;28;20079;-77
2021/10/18 01:42:26;;;;;;;0.43;0.43;;;14.10;99.90;;;;;;5052746;28;20036;-77
2021/10/18 01:44:52;;;;;;;0.10;0.10;;;14.10;99.90;;;;;;5052763;28;20049;-77
2021/10/18 01:47:17;;;;;;;1.48;0.77;;;14.10;99.90;;;;;;5057316;28;20495;-77
2021/10/18 01:49:43;;;;;;;1.35;0.45;;;14.00;99.90;;;;;;5059380;28;20024;-76
2021/10/18 01:52:09;;;;;;;0.50;0.47;;;14.10;99.90;;;;;;5058785;28;20032;-77
2021/10/18 01:54:35;;;;;;;0.20;0.13;;;14.10;99.90;;;;;;5059691;28;20021;-77
2021/10/18 01:57:00;;;;;;;0.13;0.10;;;14.00;99.90;;;;;;5058979;28;20025;-77
2021/10/18 01:59:26;;;;;;;0.85;0.85;;;14.00;99.90;;;;;;5059079;28;20499;-77
2021/10/18 02:01:52;;;;;;;0.63;0.38;;;14.10;99.90;;;;;;5059250;28;20103;-78
2021/10/18 02:04:17;;;;;;;0.00;0.00;;;14.00;99.90;;;;;;5058213;28;20021;-78
2021/10/18 02:06:43;;;;;;;0.30;0.30;;;14.10;99.90;;;;;;5059115;28;20036;-77
2021/10/18 02:09:09;;;;;;;0.20;0.20;;;14.00;99.90;;;;;;5059071;28;20021;-77
2021/10/18 02:11:35;;;;;;;1.55;0.38;;;14.00;99.90;;;;;;5058091;28;20024;-77
2021/10/18 02:14:00;;;;;;;0.88;0.45;;;14.00;99.90;;;;;;5058988;28;20052;-77
2021/10/18 02:16:26;;;;;;;0.75;0.75;;;14.00;99.90;;;;;;5058999;28;20476;-76
2021/10/18 02:18:52;;;;;;;4.65;1.23;;;14.10;99.90;;;;;;5059059;28;20082;-77
2021/10/18 02:21:17;;;;;;;0.30;0.30;;;14.00;99.90;;;;;;5058842;28;20033;-77
2021/10/18 02:23:43;;;;;;;0.05;0.05;;;14.00;99.90;;;;;;5057761;28;20063;-77
2021/10/18 02:26:09;;;;;;;0.40;0.28;;;14.10;99.90;;;;;;5058727;28;20436;-77
2021/10/18 02:28:34;;;;;;;7.60;1.02;;;14.10;99.90;;;;;;5057699;28;20429;-77
2021/10/18 02:31:00;;;;;;;0.38;0.35;;;14.10;99.90;;;;;;5057974;28;20037;-77
2021/10/18 02:33:26;;;;;;;1.73;1.08;;;14.10;99.90;;;;;;5057521;28;20029;-77
2021/10/18 02:35:53;;;;;;;0.70;0.63;;;14.10;99.90;;;;;;5058816;28;20052;-77
2021/10/18 02:38:19;;;;;;;0.20;0.20;;;14.10;99.90;;;;;;5058564;28;20087;-77
2021/10/18 02:40:45;;;;;;;0.28;0.28;;;14.10;99.90;;;;;;5057585;28;20025;-77
2021/10/18 02:43:10;;;;;;;2.63;1.65;;;14.20;99.90;;;;;;5058769;28;20032;-77
2021/10/18 02:45:36;;;;;;;0.35;0.35;;;14.20;99.90;;;;;;5058776;28;20025;-77
2021/10/18 02:48:02;;;;;;;2.00;0.73;;;14.20;99.90;;;;;;5058738;28;20400;-77
2021/10/18 02:50:28;;;;;;;0.35;0.35;;;14.20;99.90;;;;;;5061432;28;20029;-76
2021/10/18 02:52:54;;;;;;;3.13;0.55;;;14.20;99.90;;;;;;5067969;28;20021;-77
2021/10/18 02:55:19;;;;;;;0.00;0.00;;;14.30;99.90;;;;;;5068176;28;20238;-76
2021/10/18 02:57:45;;;;;;;0.40;0.40;;;14.30;99.90;;;;;;5064300;28;20032;-77
2021/10/18 03:00:11;;;;;;;0.95;0.80;;;14.30;99.90;;;;;;5059469;28;20457;-77
2021/10/18 03:02:37;;;;;;;0.50;0.20;;;14.30;99.90;;;;;;5060872;28;20036;-77
2021/10/18 03:05:03;;;;;;;1.40;0.50;;;14.30;99.90;;;;;;5063243;28;20025;-77
2021/10/18 03:07:29;;;;;;;0.30;0.30;;;14.30;99.90;;;;;;5062701;28;20102;-77
2021/10/18 03:09:54;;;;;;;1.85;1.15;;;14.30;99.90;;;;;;5062143;28;20029;-78
2021/10/18 03:12:20;;;;;;;4.82;0.60;;;14.30;99.90;;;;;;5058259;28;20029;-77
2021/10/18 03:14:46;;;;;;;1.13;0.52;;;14.30;99.90;;;;;;5059862;28;20021;-78
2021/10/18 03:17:11;;;;;;;0.05;0.05;;;14.30;99.90;;;;;;5061074;28;20021;-77
2021/10/18 03:19:37;;;;;;;0.40;0.40;;;14.30;99.90;;;;;;5056852;28;20025;-77
2021/10/18 03:22:03;;;;;;;0.95;0.82;;;14.20;99.90;;;;;;5054650;28;20078;-76
2021/10/18 03:24:28;;;;;;;0.05;0.05;;;14.20;99.90;;;;;;5055017;28;20087;-77
2021/10/18 03:26:54;;;;;;;0.30;0.15;;;14.30;99.90;;;;;;5053989;28;20407;-77
2021/10/18 03:29:19;;;;;;;0.10;0.08;;;14.20;99.90;;;;;;5054910;28;20028;-78
2021/10/18 03:31:45;;;;;;;0.40;0.28;;;14.20;99.90;;;;;;5054961;28;20025;-78
2021/10/18 03:34:11;;;;;;;0.30;0.20;;;14.20;99.90;;;;;;5054799;28;20024;-77
2021/10/18 03:36:36;;;;;;;0.10;0.10;;;14.20;99.90;;;;;;5054359;28;20104;-77
2021/10/18 03:39:03;;;;;;;0.40;0.40;;;14.20;99.90;;;;;;5054568;28;20078;-77
2021/10/18 03:41:29;;;;;;;3.72;0.60;;;14.20;99.90;;;;;;5054515;28;20082;-77
2021/10/18 03:43:54;;;;;;;0.38;0.38;;;14.20;99.90;;;;;;5054637;28;20032;-77
2021/10/18 03:46:20;;;;;;;0.38;0.38;;;14.20;99.90;;;;;;5054539;28;20032;-77
2021/10/18 03:48:45;;;;;;;0.08;0.08;;;14.10;99.90;;;;;;5054443;28;20029;-77
2021/10/18 03:51:11;;;;;;;1.42;0.60;;;14.20;99.90;;;;;;5054201;28;20031;-77
2021/10/18 03:53:37;;;;;;;0.22;0.22;;;14.20;99.90;;;;;;5054102;28;20115;-77
2021/10/18 03:56:02;;;;;;;0.47;0.20;;;14.10;99.90;;;;;;5054224;28;20395;-77
2021/10/18 03:58:28;;;;;;;0.10;0.10;;;14.10;99.90;;;;;;5053065;28;20408;-77
2021/10/18 04:00:54;;;;;;;1.77;0.45;;;14.20;99.90;;;;;;5053431;28;20025;-76
2021/10/18 04:03:20;;;;;;;0.30;0.30;;;14.10;99.90;;;;;;5053991;28;20540;-77
2021/10/18 04:05:46;;;;;;;1.23;0.22;;;14.10;99.90;;;;;;5054067;28;20027;-77
2021/10/18 04:08:12;;;;;;;1.77;0.40;;;14.10;99.90;;;;;;5053787;28;20021;-78
2021/10/18 04:10:37;;;;;;;0.13;0.13;;;14.10;99.90;;;;;;5051753;28;20040;-77
2021/10/18 04:13:03;;;;;;;1.15;0.70;;;14.10;99.90;;;;;;5052841;28;20035;-77
2021/10/18 04:15:29;;;;;;;0.40;0.32;;;14.10;99.90;;;;;;5053916;28;20107;-77
2021/10/18 04:17:55;;;;;;;0.32;0.32;;;14.00;99.90;;;;;;5053883;28;20100;-77
2021/10/18 04:20:20;;;;;;;10.38;1.73;;;14.00;99.90;;;;;;5053751;28;20403;-77
2021/10/18 04:22:46;;;;;;;0.60;0.60;;;14.00;99.90;;;;;;5051016;28;20024;-77
2021/10/18 04:25:14;;;;;;;1.75;0.47;;;14.00;99.90;;;;;;5053480;28;20033;-77
2021/10/18 04:27:39;;;;;;;0.75;0.75;;;13.90;99.90;;;;;;5053658;28;20477;-77
2021/10/18 04:30:06;;;;;;;0.03;0.03;;;13.90;99.90;;;;;;5053637;28;20029;-77
2021/10/18 04:32:31;;;;;;;9.75;0.55;;;13.90;99.90;;;;;;5052401;28;20025;-78
2021/10/18 04:34:57;;;;;;;3.95;1.15;;;13.90;99.90;;;;;;5053624;28;20029;-77
2021/10/18 04:37:23;;;;;;;1.45;0.75;;;13.90;99.90;;;;;;5053206;28;20032;-77
2021/10/18 04:39:48;;;;;;;0.30;0.30;;;13.80;99.90;;;;;;5053560;28;20025;-77
2021/10/18 04:42:14;;;;;;;1.05;1.05;;;13.80;99.90;;;;;;5053410;28;20021;-77
2021/10/18 04:44:40;;;;;;;3.92;0.38;;;13.80;99.90;;;;;;5053458;28;20029;-78
2021/10/18 04:47:05;;;;;;;0.03;0.03;;;13.80;99.90;;;;;;5051783;28;20024;-77
2021/10/18 04:49:31;;;;;;;1.35;0.85;;;13.80;99.90;;;;;;5053264;28;20028;-77
2021/10/18 04:51:57;;;;;;;1.40;1.27;;;13.80;99.90;;;;;;5051644;28;20025;-77
2021/10/18 04:54:22;;;;;;;0.73;0.73;;;13.80;99.90;;;;;;5053183;28;20033;-76
2021/10/18 04:56:48;;;;;;;0.30;0.30;;;13.80;99.90;;;;;;5053376;28;20025;-77
2021/10/18 04:59:14;;;;;;;0.63;0.20;;;13.80;99.90;;;;;;5053079;28;20392;-77
2021/10/18 05:01:40;;;;;;;1.02;0.70;;;13.80;99.90;;;;;;5050304;28;20025;-77
2021/10/18 05:04:05;;;;;;;0.75;0.57;;;13.80;99.90;;;;;;5053143;28;20083;-77
2021/10/18 05:06:31;;;;;;;1.85;0.28;;;13.80;99.90;;;;;;5052978;28;20369;-76
2021/10/18 05:08:57;;;;;;;2.10;0.57;;;13.80;99.90;;;;;;5052838;28;20450;-77
2021/10/18 05:11:22;;;;;;;0.88;0.88;;;13.80;99.90;;;;;;5052767;28;20021;-77
2021/10/18 05:13:48;;;;;;;1.10;0.90;;;13.70;99.90;;;;;;5051629;28;20403;-77
2021/10/18 05:16:14;;;;;;;1.00;0.98;;;13.80;99.90;;;;;;5052620;28;20032;-77
2021/10/18 05:18:39;;;;;;;7.65;0.57;;;13.80;99.90;;;;;;5052267;28;20063;-77
2021/10/18 05:21:06;;;;;;;0.90;0.38;;;13.80;99.90;;;;;;5051874;28;20029;-77
2021/10/18 05:23:35;;;;;;;0.00;0.00;;;13.80;99.90;;;;;;5052949;28;20031;-77
2021/10/18 05:26:03;;;;;;;6.15;1.25;;;13.80;99.90;;;;;;5052520;28;20079;-77
2021/10/18 05:28:29;;;;;;;0.10;0.10;;;13.80;99.90;;;;;;5052952;28;20102;-77
2021/10/18 05:30:55;;;;;;;1.40;0.52;;;13.80;99.90;;;;;;5052777;28;20507;-77
2021/10/18 05:33:20;;;;;;;0.55;0.50;;;13.80;99.90;;;;;;5052696;28;20162;-77
2021/10/18 05:35:46;;;;;;;1.60;0.82;;;13.80;99.90;;;;;;5052704;28;20492;-77
2021/10/18 05:38:20;;;;;;;0.10;0.10;;;13.80;99.90;;;;;;5052407;28;20029;-77
2021/10/18 05:40:47;;;;;;;6.57;0.98;;;13.80;99.90;;;;;;5052851;28;20021;-78
2021/10/18 05:43:12;;;;;;;1.25;0.65;;;13.90;99.90;;;;;;5052724;28;20029;-77
2021/10/18 05:45:38;;;;;;;0.13;0.13;;;13.80;99.90;;;;;;5052368;28;20024;-76
2021/10/18 05:48:05;;;;;;;0.52;0.52;;;13.90;99.90;;;;;;5052155;28;20036;-77
2021/10/18 05:50:37;;;;;;;0.00;0.00;;;13.90;99.90;;;;;;5052642;28;20021;-77
2021/10/18 05:53:04;;;;;;;0.00;0.00;;;13.90;99.90;;;;;;5052171;28;20534;-77
2021/10/18 05:55:30;;;;;;;0.70;0.70;;;13.80;99.90;;;;;;5052568;28;20025;-77
2021/10/18 05:57:57;;;;;;;2.05;1.25;;;13.80;99.90;;;;;;5052185;28;20503;-77
2021/10/18 06:00:24;;;;;;;2.10;1.55;;;13.80;99.90;;;;;;5051648;28;20025;-77
2021/10/18 06:02:50;;;;;;;1.98;1.17;;;13.80;99.90;;;;;;5052257;28;20065;-77
2021/10/18 06:05:17;;;;;;;23.40;1.42;;;13.70;99.90;;;;;;5051030;28;20500;-77
2021/10/18 06:07:44;;;;;;;0.20;0.20;;;13.70;99.90;;;;;;5052416;28;20021;-77
2021/10/18 06:10:11;;;;;;;0.45;0.45;;;13.70;99.90;;;;;;5052367;28;20369;-77
2021/10/18 06:12:38;;;;;;;0.00;0.00;;;13.70;99.90;;;;;;5052193;28;20497;-77
2021/10/18 06:15:05;;;;;;;5.57;0.73;;;13.60;99.90;;;;;;5050787;28;20025;-78
2021/10/18 06:17:32;;;;;;;1.85;1.75;;;13.60;99.90;;;;;;5050322;28;20089;-78
2021/10/18 06:19:57;;;;;;;0.68;0.68;;;13.60;99.90;;;;;;5051430;28;20387;-77
2021/10/18 06:22:23;;;;;;;0.47;0.47;;;13.60;99.90;;;;;;5051332;28;20047;-77
2021/10/18 06:24:50;;;;;;;0.22;0.22;;;13.60;99.90;;;;;;5049394;28;20040;-75
2021/10/18 06:27:16;;;;;;;0.25;0.25;;;13.60;99.90;;;;;;5044942;28;20060;-77
2021/10/18 06:29:42;;;;;;;0.68;0.68;;;13.60;99.90;;;;;;5037539;28;20028;-77
2021/10/18 06:32:08;;;;;;;0.10;0.10;;;13.60;99.90;;;;;;5044276;28;20052;-77
2021/10/18 06:34:34;;;;;;;1.17;0.17;;;13.60;99.90;;;;;;5054929;28;20018;-77
2021/10/18 06:37:00;;;;;;;0.03;0.03;;;13.60;99.90;;;;;;5038234;28;20024;-78
2021/10/18 06:39:25;;;;;;;0.70;0.70;;;13.60;99.90;;;;;;5054741;28;20075;-77
2021/10/18 06:41:51;;;;;;;0.75;0.75;;;13.60;99.90;;;;;;5054768;28;20036;-77
2021/10/18 06:44:17;;;;;;;0.45;0.45;;;13.60;99.90;;;;;;5044615;28;20112;-77
2021/10/18 06:46:42;;;;;;;0.40;0.40;;;13.60;99.90;;;;;;5045452;28;20021;-77
2021/10/18 06:49:08;;;;;;;0.40;0.40;;;13.70;99.90;;;;;;5037030;28;20022;-77
2021/10/18 06:51:38;;;;;;;8.00;1.80;;;13.70;99.90;;;;;;5047244;28;20040;-78
2021/10/18 06:54:05;;;;;;;0.35;0.35;;;13.70;99.90;;;;;;5062096;28;20017;-77
2021/10/18 06:56:30;;;;;;;0.32;0.32;;;13.70;99.90;;;;;;5046887;28;20029;-78
2021/10/18 06:58:56;;;;;;;0.85;0.63;;;13.70;99.90;;;;;;5051786;28;20028;-77
2021/10/18 07:01:21;;;;;;;0.60;0.60;;;13.70;99.90;;;;;;5043450;28;20030;-77
2021/10/18 07:03:50;;;;;;;0.95;0.65;;;13.70;99.90;;;;;;5050580;28;20039;-79
2021/10/18 07:06:16;;;;;;;1.65;0.75;;;13.70;99.90;;;;;;5043512;28;20504;-78
2021/10/18 07:08:41;;;;;;;2.08;1.00;;;13.70;99.90;;;;;;5048617;28;20031;-77
2021/10/18 07:11:07;;;;;;;1.05;0.57;;;13.80;99.90;;;;;;5041291;28;20506;-76
2021/10/18 07:13:33;;;;;;;2.20;0.60;;;13.80;99.90;;;;;;5045698;28;20038;-76
2021/10/18 07:15:59;;;;;;;2.40;0.85;;;13.80;99.90;;;;;;5050812;28;20071;-76
2021/10/18 07:18:27;;;;;;;0.88;0.40;;;13.80;99.90;;;;;;5053670;28;20524;-75
2021/10/18 07:20:52;;;;;;;0.50;0.50;;;13.90;99.90;;;;;;5061782;28;20024;-77
2021/10/18 07:23:18;;;;;;;0.15;0.15;;;13.90;99.90;;;;;;5048492;28;20033;-76
2021/10/18 07:25:44;;;;;;;0.70;0.70;;;13.90;99.90;;;;;;5055261;28;20048;-77
2021/10/18 07:28:10;;;;;;;4.72;0.90;;;14.00;99.90;;;;;;5060087;28;20024;-77
2021/10/18 07:30:38;;;;;;;0.30;0.30;;;14.00;99.90;;;;;;5049815;28;20116;-77
2021/10/18 07:33:03;;;;;;;0.30;0.22;;;14.10;99.90;;;;;;5053926;28;20021;-77
2021/10/18 07:35:34;;;;;;;0.75;0.57;;;14.10;99.90;;;;;;5050564;28;20029;-79
2021/10/18 07:38:00;;;;;;;2.53;0.82;;;14.10;99.90;;;;;;5051266;28;20511;-77
2021/10/18 07:40:27;;;;;;;0.20;0.20;;;14.10;99.90;;;;;;5050474;28;20029;-78
2021/10/18 07:42:53;;;;;;;1.98;1.25;;;14.20;99.90;;;;;;5049517;28;20021;-79
2021/10/18 07:45:19;;;;;;;1.63;0.43;;;14.20;99.90;;;;;;5052020;28;20373;-78
2021/10/18 07:48:23;;;;;;;1.52;1.42;;;14.30;99.90;;;;;;5050154;28;20020;-77
2021/10/18 07:50:49;;;;;;;0.43;0.43;;;14.30;99.90;;;;;;5043734;28;20033;-80
2021/10/18 07:53:15;;;;;;;0.10;0.10;;;14.40;99.90;;;;;;5050707;28;20083;-80
2021/10/18 07:55:41;;;;;;;3.75;1.60;;;14.50;99.90;;;;;;5049581;28;20036;-79
2021/10/18 07:58:07;;;;;;;0.45;0.32;;;14.60;99.90;;;;;;5051813;28;20025;-78
2021/10/18 08:00:33;;;;;;;2.75;0.57;;;14.60;99.90;;;;;;5050192;28;20021;-78
2021/10/18 08:03:00;;;;;;;1.30;1.20;;;14.60;99.90;;;;;;5049606;28;20051;-78
2021/10/18 08:07:47;;;;;;;1.35;0.77;;;14.70;99.90;;;;;;5050948;28;20447;-77
2021/10/18 08:09:15;;;;;;;0.30;0.30;;;14.80;99.90;;;;;;4916700;29;20609;-77
2021/10/18 08:12:15;;;;;;;1.00;0.60;;;14.80;99.90;;;;;;4918280;29;20113;-77
2021/10/18 08:15:36;;;;;;;4.88;1.67;;;14.90;99.90;;;;;;4935768;29;20096;-77
2021/10/18 08:18:13;;;;;;;0.60;0.20;;;15.00;99.90;;;;;;4935878;28;20446;-80
2021/10/18 08:21:22;;;;;;;0.10;0.10;;;15.00;99.90;;;;;;4934616;29;20024;-77
2021/10/18 08:24:03;;;;;;;0.88;0.45;;;15.10;99.90;;;;;;4929262;29;20066;-77
2021/10/18 08:32:13;;;;;;;3.10;1.48;;;15.30;99.90;;;;;;5911669;23;20809;-75
2021/10/18 08:34:39;;;;;;;4.65;0.95;;;15.40;99.90;;;;;;4904905;29;20491;-79
2021/10/18 08:37:05;;;;;;;1.63;1.52;;;15.50;99.90;;;;;;4926649;29;20032;-78
2021/10/18 08:42:22;;;;;;;1.40;0.93;;;15.70;99.90;;;;;;4935025;29;20114;-78
2021/10/18 08:44:49;;;;;;;0.63;0.63;;;15.80;99.90;;;;;;4932332;29;20047;-78
2021/10/18 08:47:15;;;;;;;3.00;1.00;;;16.00;99.90;;;;;;4923708;29;20411;-78
2021/10/18 08:49:41;;;;;;;0.77;0.60;;;16.10;99.90;;;;;;4930896;29;20103;-77
2021/10/18 08:52:07;;;;;;;0.57;0.57;;;16.10;99.90;;;;;;4932937;29;20570;-76
2021/10/18 08:54:33;;;;;;;3.67;0.77;;;16.10;99.90;;;;;;4931083;29;20454;-77
2021/10/18 08:56:59;;;;;;;5.07;0.63;;;16.20;99.90;;;;;;4918417;29;20051;-77
2021/10/18 08:59:27;;;;;;;1.23;0.55;;;16.30;99.90;;;;;;4931779;29;20102;-76
2021/10/18 09:01:57;;;;;;;0.10;0.10;;;16.60;99.90;;;;;;4915041;29;20046;-79
2021/10/18 09:04:27;;;;;;;0.22;0.22;;;16.60;99.90;;;;;;4930918;29;20115;-79
2021/10/18 09:06:59;;;;;;;4.30;0.85;;;16.60;99.90;;;;;;4930813;29;20395;-77
2021/10/18 09:09:27;;;;;;;0.25;0.25;;;16.50;99.90;;;;;;4926713;29;20034;-79
2021/10/18 09:11:56;;;;;;;0.40;0.40;;;16.50;99.90;;;;;;4929752;29;20550;-78
2021/10/18 09:14:22;;;;;;;0.98;0.90;;;16.60;99.90;;;;;;4908530;29;20059;-76
2021/10/18 09:16:49;;;;;;;0.47;0.47;;;16.60;99.90;;;;;;4931143;29;20107;-76
2021/10/18 09:19:22;;;;;;;1.17;0.32;;;16.70;99.90;;;;;;4930278;29;20032;-81
2021/10/18 09:21:49;;;;;;;0.40;0.40;;;16.70;99.90;;;;;;4927230;29;20440;-77
2021/10/18 09:24:36;;;;;;;11.35;0.73;;;16.90;99.90;;;;;;4912688;29;20399;-81
2021/10/18 09:27:05;;;;;;;5.47;1.50;;;17.10;99.90;;;;;;4926380;29;20114;-81
2021/10/18 09:29:52;;;;;;;0.20;0.20;;;17.20;99.90;;;;;;4910898;29;20031;-78
2021/10/18 09:32:27;;;;;;;3.20;0.28;;;17.50;99.90;;;;;;4922423;29;20427;-81
2021/10/18 09:35:06;;;;;;;0.38;0.38;;;17.90;99.90;;;;;;4928281;29;20072;-81
2021/10/18 09:37:51;;;;;;;0.95;0.88;;;18.20;99.90;;;;;;4923718;29;20032;-81
2021/10/18 09:40:40;;;;;;;2.08;0.50;;;18.50;99.90;;;;;;4929351;29;20035;-81
2021/10/18 09:45:37;;;;;;;1.20;1.00;;;19.10;99.90;;;;;;4920055;29;20040;-81
2021/10/18 10:51:43;;;;;;;1.33;0.98;;;19.60;99.90;;;;;;4912246;29;20123;-82
2021/10/18 10:54:12;;;;;;;0.10;0.10;;;19.80;99.90;;;;;;4922621;29;20024;-83
2021/10/18 10:56:49;;;;;;;0.17;0.17;;;19.80;99.90;;;;;;4934056;29;20031;-80
2021/10/18 10:59:35;;;;;;;;;;;;;;;;;;;;;
2021/10/18 11:02:06;;;;;;;0.25;0.25;;;20.20;99.90;;;;;;4931457;29;20050;-81
2021/10/18 11:04:55;;;;;;;;;;;;;;;;;;;;;
2021/10/18 11:07:43;;;;;;;0.10;0.10;;;19.80;99.90;;;;;;4934283;29;20086;-84
2021/10/18 11:10:32;;;;;;;0.00;0.00;;;19.80;99.90;;;;;;4931316;29;20031;-81
2021/10/18 11:13:26;;;;;;;0.47;0.15;;;20.00;99.90;;;;;;4918441;29;20040;-83
2021/10/18 11:16:04;;;;;;;0.22;0.15;;;20.10;99.90;;;;;;4932195;29;20027;-82
2021/10/18 11:18:38;;;;;;;0.15;0.15;;;20.50;99.90;;;;;;4931044;29;20514;-81
2021/10/18 11:21:24;;;;;;;1.23;0.45;;;20.70;99.90;;;;;;4931880;29;20031;-85
2021/10/18 11:24:16;;;;;;;0.75;0.50;;;20.80;99.90;;;;;;4933122;29;20090;-82
2021/10/18 11:26:54;;;;;;;;;;;;;;;;;;;;;
2021/10/18 11:29:35;;;;;;;0.00;0.00;;;20.70;99.90;;;;;;4893566;29;20053;-79
2021/10/18 11:32:37;;;;;;;0.73;0.40;;;20.60;99.90;;;;;;4873808;29;20043;-81
2021/10/18 11:35:28;;;;;;;0.52;0.43;;;20.70;99.90;;;;;;4881683;29;20047;-80
2021/10/18 11:38:34;;;;;;;;;;;;;;;;;;;;;
2021/10/18 11:41:03;;;;;;;0.38;0.38;;;21.00;99.90;;;;;;4863108;29;20617;-84
2021/10/18 11:43:59;;;;;;;;;;;;;;;;;;;;;
2021/10/18 11:47:23;;;;;;;0.00;0.00;;;21.40;99.90;;;;;;4882139;29;20050;-82
2021/10/18 11:49:31;;;;;;;1.10;0.22;;;21.50;99.90;;;;;;4877117;29;20512;-81
2021/10/18 11:52:16;;;;;;;0.30;0.30;;;21.80;99.90;;;;;;4873183;29;20036;-80
2021/10/18 11:55:05;;;;;;;0.63;0.32;;;21.60;99.90;;;;;;4883762;29;20044;-82
2021/10/18 11:57:41;;;;;;;;;;;;;;;;;;;;;
2021/10/18 12:00:30;;;;;;;0.08;0.00;;;21.50;99.90;;;;;;4880050;29;20507;-78
2021/10/18 12:03:04;;;;;;;0.38;0.38;;;21.40;99.90;;;;;;4910137;29;20042;-79
2021/10/18 12:05:43;;;;;;;1.08;0.88;;;21.10;99.90;;;;;;4927248;29;20384;-79
2021/10/18 12:08:18;;;;;;;2.75;0.47;;;21.00;99.90;;;;;;4923500;29;20019;-81
2021/10/18 12:11:01;;;;;;;0.73;0.63;;;21.10;99.90;;;;;;4926001;29;20035;-79
2021/10/18 12:13:39;;;;;;;0.40;0.30;;;21.50;99.90;;;;;;4924654;29;20036;-79
2021/10/18 12:16:32;;;;;;;;;;;;;;;;;;;;;
2021/10/18 12:19:04;;;;;;;2.45;0.47;;;21.70;99.90;;;;;;4932226;29;20559;-80
2021/10/18 12:21:50;;;;;;;;;;;;;;;;;;;;;
2021/10/18 12:24:34;;;;;;;;;;;;;;;;;;;;;
2021/10/18 12:27:03;;;;;;;0.52;0.50;;;21.20;99.90;;;;;;4868495;29;20039;-81
2021/10/18 12:29:36;;;;;;;0.10;0.10;;;20.90;99.90;;;;;;4916443;29;20123;-79
2021/10/18 12:32:09;;;;;;;0.38;0.35;;;21.00;99.90;;;;;;4932043;29;20036;-79
2021/10/18 12:35:00;;;;;;;0.55;0.22;;;20.90;99.90;;;;;;4933393;29;20115;-78
2021/10/18 12:37:26;;;;;;;0.10;0.10;;;20.90;99.90;;;;;;4929180;29;20038;-79
2021/10/18 12:39:54;;;;;;;3.15;0.50;;;21.00;99.90;;;;;;4932198;29;20039;-79
2021/10/18 12:42:21;;;;;;;0.95;0.75;;;21.40;99.90;;;;;;4937799;29;20028;-82
2021/10/18 12:45:00;;;;;;;0.03;0.03;;;21.90;99.90;;;;;;4934770;29;20030;-79
2021/10/18 12:47:26;;;;;;;0.45;0.38;;;22.10;99.90;;;;;;4940285;29;20079;-77
2021/10/18 12:50:00;;;;;;;0.30;0.25;;;22.40;99.90;;;;;;4932260;29;20036;-78
2021/10/18 12:52:30;;;;;;;0.35;0.35;;;22.70;99.90;;;;;;4914038;29;20027;-80
2021/10/18 12:54:57;;;;;;;0.50;0.32;;;22.90;99.90;;;;;;4931529;29;20095;-78
2021/10/18 12:57:36;;;;;;;11.68;0.55;;;22.60;99.90;;;;;;4922961;29;20028;-78
2021/10/18 13:00:11;;;;;;;0.47;0.43;;;22.40;99.90;;;;;;4937797;29;20095;-78
2021/10/18 13:02:46;;;;;;;0.25;0.25;;;22.20;99.90;;;;;;4927466;29;20511;-83
2021/10/18 13:05:15;;;;;;;0.32;0.20;;;22.10;99.90;;;;;;4916193;29;20039;-79
2021/10/18 13:07:58;;;;;;;0.13;0.13;;;22.00;99.90;;;;;;4932471;29;20035;-80
2021/10/18 13:10:28;;;;;;;;;;;21.80;99.90;;;;;;4932205;29;20102;-80
2021/10/18 13:12:57;;;;;;;0.10;0.10;;;21.80;99.90;;;;;;4943275;29;19910;-79
2021/10/18 13:15:23;;;;;;;0.00;0.00;;;22.00;99.90;;;;;;4938446;29;20122;-79
2021/10/18 13:17:50;;;;;;;0.70;0.52;;;22.00;99.90;;;;;;4928935;29;20042;-83
2021/10/18 13:20:22;;;;;;;0.20;0.20;;;21.90;99.90;;;;;;4932866;29;20377;-79
2021/10/18 13:22:52;;;;;;;0.20;0.17;;;22.00;99.90;;;;;;4925705;29;20091;-83
2021/10/18 13:25:22;;;;;;;1.95;0.43;;;21.90;99.90;;;;;;4933134;29;20042;-79
2021/10/18 13:27:49;;;;;;;0.10;0.10;;;21.80;99.90;;;;;;4932386;29;20115;-79
2021/10/18 13:30:22;;;;;;;0.57;0.57;;;21.80;99.90;;;;;;4918477;29;20026;-83
2021/10/18 13:32:53;;;;;;;0.88;0.55;;;21.80;99.90;;;;;;4914468;29;20052;-81
2021/10/18 13:35:30;;;;;;;0.38;0.38;;;21.80;99.90;;;;;;4898444;29;20492;-80
2021/10/18 13:38:00;;;;;;;0.17;0.17;;;21.60;99.90;;;;;;4915214;29;20047;-78
2021/10/18 13:40:27;;;;;;;0.47;0.40;;;21.50;99.90;;;;;;4913372;29;20039;-82
2021/10/18 13:43:04;;;;;;;0.85;0.47;;;21.40;99.90;;;;;;4928557;29;20463;-78
2021/10/18 13:45:30;;;;;;;0.20;0.13;;;21.40;99.90;;;;;;4912467;29;20024;-79
2021/10/18 13:48:01;;;;;;;0.20;0.20;;;21.20;99.90;;;;;;4914567;29;20020;-85
2021/10/18 13:50:27;;;;;;;0.73;0.40;;;21.10;99.90;;;;;;4929867;29;20404;-84
2021/10/18 13:52:54;;;;;;;0.57;0.40;;;21.00;99.90;;;;;;4914404;29;20048;-80
2021/10/18 13:55:51;;;;;;;0.28;0.28;;;21.00;99.90;;;;;;4912001;29;20051;-79
2021/10/18 13:58:22;;;;;;;0.10;0.10;;;21.00;99.90;;;;;;4924365;29;20090;-80
2021/10/18 14:00:53;;;;;;;0.40;0.40;;;21.00;99.90;;;;;;4926859;29;20032;-78
2021/10/18 14:03:22;;;;;;;0.00;0.00;;;20.90;99.90;;;;;;4897815;29;20032;-84
2021/10/18 14:05:50;;;;;;;0.20;0.20;;;21.00;99.90;;;;;;4910109;29;20043;-78
2021/10/18 14:08:23;;;;;;;0.00;0.00;;;21.00;99.90;;;;;;4913420;29;20396;-78
2021/10/18 14:10:58;;;;;;;0.20;0.20;;;21.10;99.90;;;;;;4914621;29;20111;-78
2021/10/18 14:13:29;;;;;;;2.30;0.10;;;21.10;99.90;;;;;;4926736;29;20115;-76
2021/10/18 14:15:55;;;;;;;0.63;0.32;;;21.10;99.90;;;;;;4915901;29;20047;-86
2021/10/18 14:18:20;;;;;;;1.77;0.60;;;21.10;99.90;;;;;;4915596;29;20029;-79
2021/10/18 14:20:48;;;;;;;0.15;0.15;;;21.10;99.90;;;;;;4930091;29;20047;-78
2021/10/18 14:23:14;;;;;;;0.00;0.00;;;21.10;99.90;;;;;;4926193;29;20020;-82
2021/10/18 14:25:40;;;;;;;0.60;0.28;;;21.10;99.90;;;;;;4912253;29;20137;-83
2021/10/18 14:28:06;;;;;;;0.10;0.10;;;21.10;99.90;;;;;;4915833;29;20036;-78